Stations météo

Publicité
Chateau d´Oex, Suisse (6627): Température de l'air & dewpoint: 16.11.2017 22:00:00 - 22.11.2017 22:00:00 (CET)Chateau d´Oex, Suisse (6627): Température de l'air 5cm: 16.11.2017 22:00:00 - 22.11.2017 22:00:00 (CET)Chateau d´Oex, Suisse (6627): Vitesse du vent & gusts: 16.11.2017 22:00:00 - 22.11.2017 22:00:00 (CET)Chateau d´Oex, Suisse (6627): Direction du vent: 16.11.2017 22:00:00 - 22.11.2017 22:00:00 (CET)Chateau d´Oex, Suisse (6627): Ensoleillement: 16.11.2017 22:00:00 - 22.11.2017 22:00:00 (CET)Chateau d´Oex, Suisse (6627): Quantités de précipitations: 16.11.2017 22:00:00 - 22.11.2017 22:00:00 (CET)
Date & Time tt [°C] td [°C] tt 5cm [°C] ff [km/h] ff [knt] fx [km/h] fx [knt] dd sd [min] rr [mm]
22.11.2017 22:00:00 1,4 -3,2 -2,1 1 1 9 5 SE 0 0,0
22.11.2017 21:00:00 0,9 -2,1 -1,6 3 2 8 4 E 0 0,0
22.11.2017 20:00:00 2,6 -2,3 -0,9 7 4 10 5 NNW 0 0,0
22.11.2017 19:00:00 2,1 -1,6 -0,8 1 0 6 3 SE 0 0,0
22.11.2017 18:00:00 3,6 -1,5 0,1 3 2 11 6 NW 0 0,0
22.11.2017 17:00:00 4,7 -0,7 1,4 4 2 10 5 NW 16 0,0
22.11.2017 16:00:00 7,1 0,8 7,6 2 1 4 2 NW 60 0,0
22.11.2017 15:00:00 8,4 0,6 9,2 2 1 5 3 WNW 60 0,0
22.11.2017 14:00:00 9,1 0,0 10,2 1 1 8 4 E 60 0,0
22.11.2017 13:00:00 7,5 -0,2 9,8 2 1 5 3 S 60 0,0
22.11.2017 12:00:00 7,1 -0,2 8,8 1 1 4 2 N 60 0,0
22.11.2017 11:00:00 3,9 -0,3 5,3 1 0 6 3 E 60 0,0
22.11.2017 10:00:00 2,3 -3,1 3,8 1 0 5 3 E 44 0,0
22.11.2017 09:00:00 0,1 -3,7 -2,9 1 1 6 3 ESE 0 0,0
22.11.2017 08:00:00 0,1 -3,8 -3,6 1 1 7 4 N 0 0,0
22.11.2017 07:00:00 -0,9 -3,5 -3,6 2 1 9 5 NNW 0 0,0
22.11.2017 06:00:00 0,2 -3,6 -3,0 1 1 6 3 E 0 0,0
22.11.2017 05:00:00 -0,4 -3,1 -3,1 2 1 6 4 E 0 0,0
22.11.2017 04:00:00 -0,1 -2,8 -2,8 1 1 7 4 N 0 0,0
22.11.2017 03:00:00 0,9 -2,8 -2,9 0 0 8 4 ESE 0 0,0
22.11.2017 02:00:00 0,4 -2,3 -2,6 1 0 6 3 N 0 0,0
22.11.2017 01:00:00 -0,4 -2,1 -2,9 2 1 6 3 N 0 0,0
22.11.2017 00:00:00 0,8 -2,6 -2,9 3 1 8 4 N 0 0,0
21.11.2017 23:00:00 -0,4 -2,2 -2,9 1 0 9 5 NE 0 0,0
21.11.2017 22:00:00 0,3 -1,9 -2,8 1 1 5 3 NE 0 0,0
21.11.2017 21:00:00 0,2 -1,1 -2,3 3 1 6 4 E 0 0,0
21.11.2017 20:00:00 0,6 -0,7 -1,2 4 2 6 4 NNE 0 0,0
21.11.2017 19:00:00 1,4 -0,3 -0,9 1 1 4 2 NE 0 0,0
21.11.2017 18:00:00 2,7 0,6 -0,5 1 1 8 4 ENE 0 0,0
21.11.2017 17:00:00 4,0 1,3 1,5 3 1 8 4 N 0 0,0
21.11.2017 16:00:00 5,3 1,6 5,6 1 1 4 2 E 51 0,0
21.11.2017 15:00:00 6,7 2,2 8,4 2 1 4 2 S 60 0,0
21.11.2017 14:00:00 6,0 1,3 8,8 1 0 4 2 SW 60 0,0
21.11.2017 13:00:00 5,2 0,3 8,3 1 1 6 4 S 41 0,0
21.11.2017 12:00:00 4,7 -0,7 5,8 0 0 5 3 SW 8 0,0
21.11.2017 11:00:00 3,6 -0,9 7,8 1 1 5 3 SSE 56 0,0
21.11.2017 10:00:00 1,2 -1,9 1,6 1 1 8 4 E 0 0,0
21.11.2017 09:00:00 0,7 -2,5 -0,6 4 2 7 4 N 0 0,0
21.11.2017 08:00:00 -1,3 -3,2 -3,4 4 2 9 5 N 0 0,0
21.11.2017 07:00:00 -1,3 -3,2 -3,8 3 1 7 4 NNW 0 0,0
21.11.2017 06:00:00 -0,4 -2,4 -2,5 1 1 7 4 E 0 0,0
21.11.2017 05:00:00 0,0 -2,7 -2,8 1 1 7 4 E 0 0,0
21.11.2017 04:00:00 -0,5 -3,0 -2,2 2 1 8 5 E 0 0,0
21.11.2017 03:00:00 0,0 -2,9 -2,4 3 1 9 5 ESE 0 0,0
21.11.2017 02:00:00 -1,0 -3,2 -3,6 1 1 6 3 SE 0 0,0
21.11.2017 01:00:00 -0,5 -3,2 -3,2 1 1 8 4 SE 0 0,0
21.11.2017 00:00:00 -0,5 -3,0 -1,8 3 2 7 4 ENE 0 0,0
20.11.2017 23:00:00 -0,2 -3,2 -2,5 3 2 5 3 E 0 0,0
20.11.2017 22:00:00 -0,5 -3,4 -3,0 1 1 6 3 ENE 0 0,0
20.11.2017 21:00:00 -1,1 -3,0 -3,2 3 2 6 3 E 0 0,0
20.11.2017 20:00:00 -0,7 -2,1 -2,3 2 1 7 4 E 0 0,0
20.11.2017 19:00:00 -0,3 -2,0 -2,2 3 1 7 4 SE 0 0,0
20.11.2017 18:00:00 0,1 -2,0 -2,0 2 1 8 5 WNW 0 0,0
20.11.2017 17:00:00 0,7 -0,8 -1,0 1 1 4 2 NNE 0 0,0
20.11.2017 16:00:00 1,8 -0,9 0,9 2 1 5 3 ESE 0 0,0
20.11.2017 15:00:00 2,2 -1,5 3,1 0 0 3 1 N 2 0,0
20.11.2017 14:00:00 1,6 -2,2 3,9 0 0 5 3 S 52 0,0
20.11.2017 13:00:00 0,8 -2,4 4,4 2 1 7 4 S 54 0,0
20.11.2017 12:00:00 -0,8 -4,0 2,0 1 1 6 3 WSW 56 0,0
20.11.2017 11:00:00 -2,1 -4,5 -0,4 1 0 4 2 ENE 36 0,0
20.11.2017 10:00:00 -3,8 -5,6 -1,1 1 0 6 4 N 44 0,0
20.11.2017 09:00:00 -4,2 -5,7 -5,8 2 1 6 3 N 0 0,0
20.11.2017 08:00:00 -5,5 -6,4 -7,5 2 1 10 5 NNE 0 0,0
20.11.2017 07:00:00 -5,6 -6,3 -7,8 0 0 6 3 NE 0 0,0
20.11.2017 06:00:00 -5,1 -5,7 -6,0 1 1 10 5 SSW 0 0,0
20.11.2017 05:00:00 -3,2 -4,2 -3,6 2 1 7 4 S 0 0,0
20.11.2017 04:00:00 -2,5 -3,7 -2,7 4 2 11 6 SSE 0 0,0
20.11.2017 03:00:00 -1,5 -2,8 -1,6 6 3 10 6 ESE 0 0,0
20.11.2017 02:00:00 -1,3 -2,8 -1,2 3 2 9 5 NE 0 0,0
20.11.2017 01:00:00 -0,3 -1,6 -0,6 4 2 6 4 SE 0 0,0
20.11.2017 00:00:00 -0,2 -1,1 -0,4 3 2 6 3 ESE 0 0,0
19.11.2017 23:00:00 -0,2 -0,7 -0,3 1 1 5 3 ESE 0 0,0
19.11.2017 22:00:00 0,0 -0,4 -0,2 3 1 5 3 SE 0 0,0
19.11.2017 21:00:00 0,1 -0,1 -0,1 2 1 6 4 SE 0 0,0
19.11.2017 20:00:00 0,3 0,1 0,2 1 1 4 2 S 0 0,0
19.11.2017 19:00:00 0,4 0,4 0,2 1 1 8 5 SSW 0 0,0
19.11.2017 18:00:00 0,6 0,4 -0,2 4 2 7 4 NNE 0 0,0
19.11.2017 17:00:00 1,6 1,1 0,2 2 1 5 3 E 0 0,0
19.11.2017 16:00:00 1,6 1,1 0,9 3 2 7 4 NNE 0 0,0
19.11.2017 15:00:00 2,6 1,3 1,8 2 1 7 4 NE 4 0,0
19.11.2017 14:00:00 2,4 1,4 3,0 5 3 13 7 SSE 8 0,0
19.11.2017 13:00:00 1,5 0,9 3,3 1 1 8 4 WSW 0 0,3
19.11.2017 12:00:00 0,6 0,3 1,0 3 1 6 4 SSE 0 0,6
19.11.2017 11:00:00 0,0 0,0 0,7 4 2 8 5 S 0 0,2
19.11.2017 10:00:00 -0,6 -0,6 0,0 1 0 4 2 SE 0 1,0
19.11.2017 09:00:00 -1,3 -1,3 -0,6 0 0 7 4 SW 0 2,1
19.11.2017 08:00:00 -2,3 -2,3 -1,7 1 0 6 3 SSW 0 1,2
19.11.2017 07:00:00 -2,1 -3,0 -2,1 2 1 9 5 NW 0 0,4
19.11.2017 06:00:00 -1,6 -3,7 -1,9 5 3 10 5 E 0 0,0
19.11.2017 05:00:00 -1,8 -4,4 -2,2 1 1 8 4 WNW 0 0,0
19.11.2017 04:00:00 -2,2 -5,1 -2,9 2 1 11 6 ESE 0 0,0
19.11.2017 03:00:00 -3,9 -4,9 -3,3 4 2 9 5 ESE 0 0,0
19.11.2017 02:00:00 -3,3 -4,7 -4,2 3 2 13 7 N 0 0,0
19.11.2017 01:00:00 -4,3 -5,2 -5,2 3 2 6 3 ENE 0 0,0
19.11.2017 00:00:00 -4,6 -5,3 -6,1 3 1 8 4 W 0 0,0
18.11.2017 23:00:00 -4,1 -4,1 -4,4 1 0 5 3 NW 0 0,0
18.11.2017 22:00:00 -3,1 -3,3 -2,8 3 2 6 3 NNW 0 0,0
18.11.2017 21:00:00 -3,0 -3,2 -2,6 4 2 7 4 N 0 0,0
18.11.2017 20:00:00 -2,6 -2,6 -2,1 5 3 7 4 N 0 0,0
18.11.2017 19:00:00 -2,0 -2,3 -1,7 4 2 7 4 NNW 0 0,0
18.11.2017 18:00:00 -1,4 -1,8 -1,3 3 1 6 3 WNW 0 0,0
18.11.2017 17:00:00 -0,9 -1,7 -1,1 3 2 7 4 S 0 0,0
18.11.2017 16:00:00 0,0 -1,5 2,2 5 3 13 7 S 47 0,0
18.11.2017 15:00:00 1,3 -1,5 3,3 5 3 13 7 SSW 60 0,0
18.11.2017 14:00:00 0,6 -2,1 3,9 5 3 11 6 SSW 60 0,0
18.11.2017 13:00:00 0,9 -3,5 4,1 4 2 9 5 S 60 0,0
18.11.2017 12:00:00 -0,8 -3,8 2,9 2 1 7 4 NW 60 0,0
18.11.2017 11:00:00 -2,5 -4,9 0,6 2 1 4 2 SW 60 0,0
18.11.2017 10:00:00 -3,0 -5,1 -2,4 3 2 6 3 NW 45 0,0
18.11.2017 09:00:00 -4,6 -6,1 -7,6 4 2 8 4 NNE 0 0,0
18.11.2017 08:00:00 -5,8 -6,8 -8,8 3 2 6 3 N 0 0,0
18.11.2017 07:00:00 -4,8 -6,0 -8,7 2 1 4 2 N 0 0,0
18.11.2017 06:00:00 -4,9 -5,9 -8,8 1 0 5 3 N 0 0,0
18.11.2017 05:00:00 -4,6 -5,8 -7,4 4 2 9 5 NNW 0 0,0
18.11.2017 04:00:00 -3,8 -5,0 -8,0 1 0 3 2 ESE 0 0,0
18.11.2017 03:00:00 -3,5 -4,8 -7,5 1 1 6 4 NNE 0 0,0
18.11.2017 02:00:00 -4,2 -5,2 -6,9 3 2 10 5 N 0 0,0
18.11.2017 01:00:00 -3,6 -4,5 -6,6 4 2 7 4 NNE 0 0,0
18.11.2017 00:00:00 -2,7 -3,8 -6,1 1 1 5 3 N 0 0,0
17.11.2017 23:00:00 -2,7 -4,1 -5,4 4 2 7 4 NNW 0 0,0
17.11.2017 22:00:00 -2,4 -3,6 -5,1 4 2 8 4 N 0 0,0
17.11.2017 21:00:00 -1,7 -2,9 -4,7 4 2 7 4 N 0 0,0
17.11.2017 20:00:00 -2,0 -2,7 -4,5 3 1 8 4 N 0 0,0
17.11.2017 19:00:00 -1,0 -2,3 -3,7 4 2 6 3 N 0 0,0
17.11.2017 18:00:00 -0,8 -1,9 -3,2 3 1 6 3 NNE 0 0,0
17.11.2017 17:00:00 0,3 -1,3 -2,8 0 0 3 1 N 7 0,0
17.11.2017 16:00:00 1,4 -1,4 1,3 0 0 4 2 N 60 0,0
17.11.2017 15:00:00 1,5 -1,3 4,8 2 1 4 2 WSW 60 0,0
17.11.2017 14:00:00 1,4 -1,1 6,0 1 1 6 3 SSW 60 0,0
17.11.2017 13:00:00 0,8 -1,5 5,2 3 1 6 3 S 60 0,0
17.11.2017 12:00:00 1,1 -2,1 5,8 1 1 4 2 SW 60 0,0
17.11.2017 11:00:00 0,5 -2,6 5,7 0 0 4 2 WSW 60 0,0
17.11.2017 10:00:00 -0,8 -2,8 0,7 1 1 6 3 ESE 41 0,0
17.11.2017 09:00:00 -1,9 -3,3 -2,3 2 1 5 3 WNW 0 0,0
17.11.2017 08:00:00 -2,6 -3,8 -3,4 2 1 6 3 E 0 0,0
17.11.2017 07:00:00 -2,8 -4,3 -3,8 2 1 11 6 SW 0 0,0
17.11.2017 06:00:00 -3,5 -4,6 -5,5 3 1 10 5 W 0 0,0
17.11.2017 05:00:00 -3,3 -4,6 -6,9 1 0 6 3 E 0 0,0
17.11.2017 04:00:00 -3,6 -4,8 -6,1 6 3 9 5 N 0 0,0
17.11.2017 03:00:00 -3,4 -4,4 -6,7 2 1 10 5 E 0 0,0
17.11.2017 02:00:00 -3,5 -4,4 -6,8 2 1 8 5 WNW 0 0,0
17.11.2017 01:00:00 -3,6 -4,4 -6,5 3 2 6 3 W 0 0,0
17.11.2017 00:00:00 -3,2 -3,8 -5,9 2 1 8 4 NNW 0 0,0
16.11.2017 23:00:00 -1,8 -2,6 -5,6 2 1 8 4 N 0 0,0
16.11.2017 22:00:00 -2,0 -2,7 -4,8 3 1 8 5 NNW 0 0,0

tt = Température de l'air
td = dewpoint
tt 5cm = Température de l'air 5cm
ff = Vitesse du vent
fx = gusts
dd = Direction du vent
sd = Ensoleillement
rr = Quantités de précipitations

stations d'obs. à proximité